• Join FlightAware (Why Join?)
  • Login
  • US Flag 
12:30PM EDT


 

Airport Tracker/Info


-or-


 

Live Flight TrackerFlight Track Log ✈ N101WY ✈ 13-Dec-2013 ✈ KBYG - KCYS

Flight Track Log - Related Links

Times and Time Zones

All times are in EST time to prevent confusion due to time zone crossing. See the N101WY flight status page for this flight to view local times or setup timezone preferences in your user account.

Time Position Orientation Groundspeed Altitude Reporting Facility
EST Latitude Longitude Course Direction KTS MPH feet Rate Location/Type
05:12PM 44.4186 -106.6600 151° Southeast 261 300 10,700  Level Salt Lake Center
05:13PM 44.3686 -106.6131 146° Southeast 275 316 13,800 3,900 Climbing Denver Center
05:14PM 44.2592 -106.5522 158° South 300 345 18,800 4,260 Climbing Denver Center
05:15PM 43.5763 -106.2241 156° South  Level Estimated
05:15PM 44.1828 -106.5064 157° South 307 353 22,700  Level Denver Center
05:16PM 43.4959 -106.1744 156° South  Level FlightAware Approximate
05:16PM 44.0992 -106.4586 158° South 313 360 25,900  Level Salt Lake Center
05:17PM 43.4153 -106.1255 151° Southeast  Level Estimated
05:17PM 44.0092 -106.4039 156° South 344 396 28,600  Level Salt Lake Center
05:18PM 43.9247 -106.3581 159° South 330 380 32,400 2,880 Climbing Denver Center
05:19PM 43.8369 -106.3044 156° South 309 356 34,600 1,200 Climbing Denver Center
05:20PM 43.7506 -106.2556 158° South 348 400 35,000 120 Climbing Denver Center
05:21PM 43.6444 -106.1928 157° South 371 427 35,000  Level Denver Center
05:22PM 43.5367 -106.1308 157° South 376 433 35,000  Level Denver Center
05:23PM 43.4300 -106.0694 157° South 374 430 35,000  Level Denver Center
05:24PM 43.3389 -106.0164 157° South 372 428 35,000  Level Denver Center
05:26PM 43.2306 -105.9553 158° South 375 432 35,000  Level Denver Center
05:27PM 43.1378 -105.9025 157° South 377 434 35,000  Level Denver Center
05:28PM 43.0319 -105.8422 157° South 371 427 35,000  Level Denver Center
05:29PM 42.9425 -105.7914 157° South 366 421 35,000  Level Denver Center
05:30PM 42.8386 -105.7322 157° South 361 415 35,000  Level Denver Center
05:31PM 42.7506 -105.6839 158° South 357 411 35,000  Level Denver Center
05:32PM 42.6517 -105.6278 157° South 348 400 35,000  Level Denver Center
05:33PM 42.5658 -105.5806 158° South 348 400 35,000  Level Denver Center
05:34PM 42.4647 -105.5242 158° South 352 405 35,000  Level Denver Center
05:35PM 42.3756 -105.4742 157° South 361 415 35,000  Level Denver Center
05:36PM 42.2856 -105.4242 158° South 365 420 35,000  Level Denver Center
05:37PM 42.1647 -105.3583 158° South 368 423 35,000 -420 Level Denver Center
05:38PM 42.0569 -105.2992 158° South 374 430 34,200 -1,740 Descending Denver Center
05:39PM 41.9658 -105.2500 158° South 371 427 31,500 -2,940 Descending Denver Center
05:40PM 41.8617 -105.1922 158° South 365 420 28,200 -3,000 Descending Denver Center
05:41PM 41.7756 -105.1450 158° South 355 409 25,300 -3,000 Descending Denver Center
05:42PM 41.6781 -105.0919 158° South 344 396 22,000 -3,000 Descending Denver Center
05:43PM 41.5969 -105.0492 158° South 333 383 19,100 -2,820 Descending Denver Center
05:44PM 41.4997 -104.9967 158° South 335 386 16,200 -2,580 Descending Denver Center
05:45PM 41.4208 -104.9353 150° Southeast 340 391 13,800 -2,340 Descending Denver Center
05:47PM 41.3359 -104.8928 159° South  Level FlightAware Approximate
05:54PM 41.1556 -104.8105 159° South  Level Estimated
05:55PM 41.1556 -104.8105 159° South  Level Estimated
05:56PM 41.1556 -104.8105 159° South  Level Estimated
05:57PM 41.1556 -104.8105 159° South  Level Estimated
05:58PM 41.1556 -104.8105 159° South  Level Estimated
05:59PM 41.1556 -104.8105 159° South  Level Estimated